sensor_id;sensor_type;location;lat;lon;timestamp;P1;durP1;ratioP1;P2;durP2;ratioP2
29776;SDS011;16677;52.224;7.484;2023-02-28T00:01:30;21.40;;;14.60;;
29776;SDS011;16677;52.224;7.484;2023-02-28T00:03:58;24.43;;;14.97;;
29776;SDS011;16677;52.224;7.484;2023-02-28T00:06:26;18.57;;;14.27;;
29776;SDS011;16677;52.224;7.484;2023-02-28T00:08:53;19.85;;;15.82;;
29776;SDS011;16677;52.224;7.484;2023-02-28T00:11:20;22.60;;;17.80;;
29776;SDS011;16677;52.224;7.484;2023-02-28T00:13:48;20.63;;;16.90;;
29776;SDS011;16677;52.224;7.484;2023-02-28T00:16:19;20.27;;;16.05;;
29776;SDS011;16677;52.224;7.484;2023-02-28T00:18:48;19.58;;;15.45;;
29776;SDS011;16677;52.224;7.484;2023-02-28T00:21:16;19.77;;;16.33;;
29776;SDS011;16677;52.224;7.484;2023-02-28T00:23:45;19.25;;;16.60;;
29776;SDS011;16677;52.224;7.484;2023-02-28T00:26:13;17.63;;;15.73;;
29776;SDS011;16677;52.224;7.484;2023-02-28T00:28:40;16.02;;;13.77;;
29776;SDS011;16677;52.224;7.484;2023-02-28T00:31:07;14.90;;;13.18;;
29776;SDS011;16677;52.224;7.484;2023-02-28T00:33:34;14.23;;;12.77;;
29776;SDS011;16677;52.224;7.484;2023-02-28T00:36:02;15.27;;;13.68;;
29776;SDS011;16677;52.224;7.484;2023-02-28T00:38:32;15.20;;;13.27;;
29776;SDS011;16677;52.224;7.484;2023-02-28T00:40:59;17.33;;;14.23;;
29776;SDS011;16677;52.224;7.484;2023-02-28T00:43:34;16.25;;;14.35;;
29776;SDS011;16677;52.224;7.484;2023-02-28T00:46:04;18.98;;;15.57;;
29776;SDS011;16677;52.224;7.484;2023-02-28T00:48:32;17.23;;;14.18;;
29776;SDS011;16677;52.224;7.484;2023-02-28T00:50:59;17.10;;;14.45;;
29776;SDS011;16677;52.224;7.484;2023-02-28T00:53:26;17.13;;;14.48;;
29776;SDS011;16677;52.224;7.484;2023-02-28T00:55:54;16.65;;;14.93;;
29776;SDS011;16677;52.224;7.484;2023-02-28T00:58:22;16.87;;;14.97;;
29776;SDS011;16677;52.224;7.484;2023-02-28T01:00:48;16.88;;;14.35;;
29776;SDS011;16677;52.224;7.484;2023-02-28T01:03:18;15.80;;;14.10;;
29776;SDS011;16677;52.224;7.484;2023-02-28T01:05:46;15.63;;;13.20;;
29776;SDS011;16677;52.224;7.484;2023-02-28T01:08:14;18.38;;;14.20;;
29776;SDS011;16677;52.224;7.484;2023-02-28T01:10:41;16.77;;;13.88;;
29776;SDS011;16677;52.224;7.484;2023-02-28T01:18:25;14.55;;;12.00;;
29776;SDS011;16677;52.224;7.484;2023-02-28T01:20:52;12.40;;;11.10;;
29776;SDS011;16677;52.224;7.484;2023-02-28T01:23:20;13.88;;;11.15;;
29776;SDS011;16677;52.224;7.484;2023-02-28T01:25:50;11.60;;;10.40;;
29776;SDS011;16677;52.224;7.484;2023-02-28T01:28:18;12.13;;;10.63;;
29776;SDS011;16677;52.224;7.484;2023-02-28T01:30:48;12.35;;;10.85;;
29776;SDS011;16677;52.224;7.484;2023-02-28T01:33:17;11.30;;;10.10;;
29776;SDS011;16677;52.224;7.484;2023-02-28T01:35:44;12.05;;;10.80;;
29776;SDS011;16677;52.224;7.484;2023-02-28T01:38:11;12.27;;;11.00;;
29776;SDS011;16677;52.224;7.484;2023-02-28T01:40:48;11.43;;;10.33;;
29776;SDS011;16677;52.224;7.484;2023-02-28T01:43:26;13.95;;;11.02;;
29776;SDS011;16677;52.224;7.484;2023-02-28T01:46:10;12.18;;;10.50;;
29776;SDS011;16677;52.224;7.484;2023-02-28T01:48:40;11.60;;;10.30;;
29776;SDS011;16677;52.224;7.484;2023-02-28T01:51:33;11.98;;;9.60;;
29776;SDS011;16677;52.224;7.484;2023-02-28T01:54:18;11.77;;;10.43;;
29776;SDS011;16677;52.224;7.484;2023-02-28T01:56:54;13.93;;;10.48;;
29776;SDS011;16677;52.224;7.484;2023-02-28T01:59:49;12.48;;;10.95;;
29776;SDS011;16677;52.224;7.484;2023-02-28T02:02:21;13.02;;;10.80;;
29776;SDS011;16677;52.224;7.484;2023-02-28T02:04:55;12.63;;;11.33;;
29776;SDS011;16677;52.224;7.484;2023-02-28T02:07:32;12.50;;;11.10;;
29776;SDS011;16677;52.224;7.484;2023-02-28T02:15:24;12.32;;;10.90;;
29776;SDS011;16677;52.224;7.484;2023-02-28T02:24:05;14.00;;;11.05;;
29776;SDS011;16677;52.224;7.484;2023-02-28T02:26:47;13.20;;;11.25;;
29776;SDS011;16677;52.224;7.484;2023-02-28T02:30:49;13.48;;;11.50;;
29776;SDS011;16677;52.224;7.484;2023-02-28T02:38:51;15.32;;;11.68;;
29776;SDS011;16677;52.224;7.484;2023-02-28T02:41:39;13.75;;;12.32;;
29776;SDS011;16677;52.224;7.484;2023-02-28T02:46:50;13.63;;;12.15;;
29776;SDS011;16677;52.224;7.484;2023-02-28T02:49:23;14.35;;;12.43;;
29776;SDS011;16677;52.224;7.484;2023-02-28T02:51:56;14.27;;;12.73;;
29776;SDS011;16677;52.224;7.484;2023-02-28T02:54:36;13.50;;;12.15;;
29776;SDS011;16677;52.224;7.484;2023-02-28T02:57:08;13.38;;;11.98;;
29776;SDS011;16677;52.224;7.484;2023-02-28T02:59:47;14.53;;;12.23;;
29776;SDS011;16677;52.224;7.484;2023-02-28T03:02:17;14.25;;;12.45;;
29776;SDS011;16677;52.224;7.484;2023-02-28T03:04:48;13.73;;;12.30;;
29776;SDS011;16677;52.224;7.484;2023-02-28T03:07:29;13.57;;;12.27;;
29776;SDS011;16677;52.224;7.484;2023-02-28T03:09:56;13.82;;;12.40;;
29776;SDS011;16677;52.224;7.484;2023-02-28T03:12:31;14.68;;;12.18;;
29776;SDS011;16677;52.224;7.484;2023-02-28T03:15:11;15.18;;;12.50;;
29776;SDS011;16677;52.224;7.484;2023-02-28T03:20:35;13.95;;;12.52;;
29776;SDS011;16677;52.224;7.484;2023-02-28T03:23:42;13.23;;;11.93;;
29776;SDS011;16677;52.224;7.484;2023-02-28T03:26:20;15.40;;;12.85;;
29776;SDS011;16677;52.224;7.484;2023-02-28T03:29:04;14.63;;;13.13;;
29776;SDS011;16677;52.224;7.484;2023-02-28T03:34:50;13.63;;;11.82;;
29776;SDS011;16677;52.224;7.484;2023-02-28T03:37:26;12.65;;;11.32;;
29776;SDS011;16677;52.224;7.484;2023-02-28T03:40:00;12.13;;;10.90;;
29776;SDS011;16677;52.224;7.484;2023-02-28T03:42:39;12.65;;;11.00;;
29776;SDS011;16677;52.224;7.484;2023-02-28T03:45:18;12.45;;;11.13;;
29776;SDS011;16677;52.224;7.484;2023-02-28T03:47:58;12.48;;;10.77;;
29776;SDS011;16677;52.224;7.484;2023-02-28T03:51:01;12.55;;;10.77;;
29776;SDS011;16677;52.224;7.484;2023-02-28T03:53:40;12.93;;;11.43;;
29776;SDS011;16677;52.224;7.484;2023-02-28T03:56:18;12.07;;;10.82;;
29776;SDS011;16677;52.224;7.484;2023-02-28T03:59:04;12.27;;;11.07;;
29776;SDS011;16677;52.224;7.484;2023-02-28T04:01:43;12.68;;;11.35;;
29776;SDS011;16677;52.224;7.484;2023-02-28T04:04:13;13.50;;;11.02;;
29776;SDS011;16677;52.224;7.484;2023-02-28T04:06:42;12.57;;;11.25;;
29776;SDS011;16677;52.224;7.484;2023-02-28T04:09:12;12.80;;;10.98;;
29776;SDS011;16677;52.224;7.484;2023-02-28T04:11:50;12.30;;;10.40;;
29776;SDS011;16677;52.224;7.484;2023-02-28T04:14:22;12.73;;;10.98;;
29776;SDS011;16677;52.224;7.484;2023-02-28T04:16:52;13.23;;;10.60;;
29776;SDS011;16677;52.224;7.484;2023-02-28T04:19:20;12.40;;;10.63;;
29776;SDS011;16677;52.224;7.484;2023-02-28T04:21:48;12.23;;;10.98;;
29776;SDS011;16677;52.224;7.484;2023-02-28T04:24:19;12.77;;;10.48;;
29776;SDS011;16677;52.224;7.484;2023-02-28T04:26:52;12.60;;;10.65;;
29776;SDS011;16677;52.224;7.484;2023-02-28T04:29:26;12.70;;;10.93;;
29776;SDS011;16677;52.224;7.484;2023-02-28T04:31:56;13.67;;;10.97;;
29776;SDS011;16677;52.224;7.484;2023-02-28T04:34:26;12.20;;;10.25;;
29776;SDS011;16677;52.224;7.484;2023-02-28T04:36:55;11.02;;;9.85;;
29776;SDS011;16677;52.224;7.484;2023-02-28T04:39:38;14.13;;;10.63;;
29776;SDS011;16677;52.224;7.484;2023-02-28T04:42:06;12.57;;;10.80;;
29776;SDS011;16677;52.224;7.484;2023-02-28T04:44:33;12.10;;;10.63;;
29776;SDS011;16677;52.224;7.484;2023-02-28T04:47:00;12.05;;;10.82;;
29776;SDS011;16677;52.224;7.484;2023-02-28T04:49:27;13.93;;;11.48;;
29776;SDS011;16677;52.224;7.484;2023-02-28T04:51:55;13.32;;;12.13;;
29776;SDS011;16677;52.224;7.484;2023-02-28T04:54:22;14.57;;;13.07;;
29776;SDS011;16677;52.224;7.484;2023-02-28T04:56:49;14.27;;;12.20;;
29776;SDS011;16677;52.224;7.484;2023-02-28T04:59:16;13.33;;;12.10;;
29776;SDS011;16677;52.224;7.484;2023-02-28T05:01:47;13.63;;;11.63;;
29776;SDS011;16677;52.224;7.484;2023-02-28T05:04:15;13.38;;;12.05;;
29776;SDS011;16677;52.224;7.484;2023-02-28T05:06:43;14.23;;;11.63;;
29776;SDS011;16677;52.224;7.484;2023-02-28T05:09:10;14.38;;;12.88;;
29776;SDS011;16677;52.224;7.484;2023-02-28T05:11:38;16.15;;;14.35;;
29776;SDS011;16677;52.224;7.484;2023-02-28T05:14:09;16.50;;;14.32;;
29776;SDS011;16677;52.224;7.484;2023-02-28T05:16:39;15.27;;;13.10;;
29776;SDS011;16677;52.224;7.484;2023-02-28T05:19:06;17.42;;;14.52;;
29776;SDS011;16677;52.224;7.484;2023-02-28T05:21:34;16.30;;;14.70;;
29776;SDS011;16677;52.224;7.484;2023-02-28T05:24:08;16.00;;;14.32;;
29776;SDS011;16677;52.224;7.484;2023-02-28T05:26:39;14.30;;;12.63;;
29776;SDS011;16677;52.224;7.484;2023-02-28T05:29:08;14.33;;;12.00;;
29776;SDS011;16677;52.224;7.484;2023-02-28T05:31:36;14.47;;;12.50;;
29776;SDS011;16677;52.224;7.484;2023-02-28T05:34:03;16.50;;;13.50;;
29776;SDS011;16677;52.224;7.484;2023-02-28T05:36:31;15.80;;;14.20;;
29776;SDS011;16677;52.224;7.484;2023-02-28T05:38:59;16.23;;;13.20;;
29776;SDS011;16677;52.224;7.484;2023-02-28T05:41:26;14.80;;;13.40;;
29776;SDS011;16677;52.224;7.484;2023-02-28T05:43:54;15.48;;;13.50;;
29776;SDS011;16677;52.224;7.484;2023-02-28T05:46:21;16.15;;;14.13;;
29776;SDS011;16677;52.224;7.484;2023-02-28T05:48:48;16.77;;;13.73;;
29776;SDS011;16677;52.224;7.484;2023-02-28T05:51:16;17.95;;;14.15;;
29776;SDS011;16677;52.224;7.484;2023-02-28T05:53:44;16.45;;;14.45;;
29776;SDS011;16677;52.224;7.484;2023-02-28T05:56:11;17.08;;;14.27;;
29776;SDS011;16677;52.224;7.484;2023-02-28T05:58:38;15.75;;;14.15;;
29776;SDS011;16677;52.224;7.484;2023-02-28T06:04:17;60.10;;;49.75;;
29776;SDS011;16677;52.224;7.484;2023-02-28T06:06:57;39.03;;;32.00;;
29776;SDS011;16677;52.224;7.484;2023-02-28T06:09:25;17.88;;;15.85;;
29776;SDS011;16677;52.224;7.484;2023-02-28T06:11:52;19.42;;;15.38;;
29776;SDS011;16677;52.224;7.484;2023-02-28T06:14:20;16.77;;;15.10;;
29776;SDS011;16677;52.224;7.484;2023-02-28T06:16:47;17.80;;;15.35;;
29776;SDS011;16677;52.224;7.484;2023-02-28T06:19:15;25.17;;;18.87;;
29776;SDS011;16677;52.224;7.484;2023-02-28T06:21:42;15.80;;;13.17;;
29776;SDS011;16677;52.224;7.484;2023-02-28T06:24:10;14.67;;;11.97;;
29776;SDS011;16677;52.224;7.484;2023-02-28T06:26:37;15.50;;;14.02;;
29776;SDS011;16677;52.224;7.484;2023-02-28T06:29:04;19.90;;;14.70;;
29776;SDS011;16677;52.224;7.484;2023-02-28T06:31:32;16.42;;;14.55;;
29776;SDS011;16677;52.224;7.484;2023-02-28T06:33:59;17.20;;;15.20;;
29776;SDS011;16677;52.224;7.484;2023-02-28T06:36:26;18.77;;;15.95;;
29776;SDS011;16677;52.224;7.484;2023-02-28T06:38:54;18.50;;;15.63;;
29776;SDS011;16677;52.224;7.484;2023-02-28T06:41:23;17.63;;;15.75;;
29776;SDS011;16677;52.224;7.484;2023-02-28T06:43:53;19.83;;;17.23;;
29776;SDS011;16677;52.224;7.484;2023-02-28T06:46:20;16.65;;;14.55;;
29776;SDS011;16677;52.224;7.484;2023-02-28T06:48:48;17.75;;;14.98;;
29776;SDS011;16677;52.224;7.484;2023-02-28T06:51:16;17.60;;;14.75;;
29776;SDS011;16677;52.224;7.484;2023-02-28T06:53:50;17.25;;;15.45;;
29776;SDS011;16677;52.224;7.484;2023-02-28T06:56:18;18.25;;;16.33;;
29776;SDS011;16677;52.224;7.484;2023-02-28T06:58:47;18.27;;;16.08;;
29776;SDS011;16677;52.224;7.484;2023-02-28T07:01:16;17.88;;;15.98;;
29776;SDS011;16677;52.224;7.484;2023-02-28T07:03:44;20.52;;;16.45;;
29776;SDS011;16677;52.224;7.484;2023-02-28T07:06:11;19.10;;;15.77;;
29776;SDS011;16677;52.224;7.484;2023-02-28T07:08:38;18.23;;;16.08;;
29776;SDS011;16677;52.224;7.484;2023-02-28T07:11:07;17.60;;;13.88;;
29776;SDS011;16677;52.224;7.484;2023-02-28T07:13:35;17.98;;;14.77;;
29776;SDS011;16677;52.224;7.484;2023-02-28T07:16:03;15.95;;;13.57;;
29776;SDS011;16677;52.224;7.484;2023-02-28T07:18:35;15.95;;;13.13;;
29776;SDS011;16677;52.224;7.484;2023-02-28T07:21:04;19.95;;;14.25;;
29776;SDS011;16677;52.224;7.484;2023-02-28T07:23:34;14.95;;;12.82;;
29776;SDS011;16677;52.224;7.484;2023-02-28T07:26:02;15.25;;;11.50;;
29776;SDS011;16677;52.224;7.484;2023-02-28T07:28:29;17.70;;;12.47;;
29776;SDS011;16677;52.224;7.484;2023-02-28T07:30:56;14.80;;;11.60;;
29776;SDS011;16677;52.224;7.484;2023-02-28T07:33:23;12.90;;;10.27;;
29776;SDS011;16677;52.224;7.484;2023-02-28T07:35:50;11.52;;;9.57;;
29776;SDS011;16677;52.224;7.484;2023-02-28T07:38:18;9.90;;;8.38;;
29776;SDS011;16677;52.224;7.484;2023-02-28T07:40:45;12.07;;;8.88;;
29776;SDS011;16677;52.224;7.484;2023-02-28T07:43:12;9.38;;;7.18;;
29776;SDS011;16677;52.224;7.484;2023-02-28T07:45:39;8.32;;;7.10;;
29776;SDS011;16677;52.224;7.484;2023-02-28T07:48:06;9.48;;;6.90;;
29776;SDS011;16677;52.224;7.484;2023-02-28T07:50:36;8.43;;;7.18;;
29776;SDS011;16677;52.224;7.484;2023-02-28T07:53:03;8.25;;;7.20;;
29776;SDS011;16677;52.224;7.484;2023-02-28T07:55:31;6.95;;;6.18;;
29776;SDS011;16677;52.224;7.484;2023-02-28T07:57:58;6.10;;;5.30;;
29776;SDS011;16677;52.224;7.484;2023-02-28T08:00:26;6.97;;;5.35;;
29776;SDS011;16677;52.224;7.484;2023-02-28T08:02:55;5.65;;;4.70;;
29776;SDS011;16677;52.224;7.484;2023-02-28T08:05:22;6.30;;;4.80;;
29776;SDS011;16677;52.224;7.484;2023-02-28T08:07:50;5.57;;;4.95;;
29776;SDS011;16677;52.224;7.484;2023-02-28T08:10:17;4.63;;;4.22;;
29776;SDS011;16677;52.224;7.484;2023-02-28T08:12:44;6.72;;;4.95;;
29776;SDS011;16677;52.224;7.484;2023-02-28T08:15:11;6.13;;;4.85;;
29776;SDS011;16677;52.224;7.484;2023-02-28T08:17:38;6.28;;;5.20;;
29776;SDS011;16677;52.224;7.484;2023-02-28T08:20:06;6.10;;;4.80;;
29776;SDS011;16677;52.224;7.484;2023-02-28T08:22:36;5.05;;;3.90;;
29776;SDS011;16677;52.224;7.484;2023-02-28T08:25:03;4.30;;;3.70;;
29776;SDS011;16677;52.224;7.484;2023-02-28T08:27:33;4.72;;;3.50;;
29776;SDS011;16677;52.224;7.484;2023-02-28T08:30:01;5.80;;;4.15;;
29776;SDS011;16677;52.224;7.484;2023-02-28T08:32:29;5.10;;;3.67;;
29776;SDS011;16677;52.224;7.484;2023-02-28T08:34:56;4.20;;;3.80;;
29776;SDS011;16677;52.224;7.484;2023-02-28T08:37:24;4.35;;;3.95;;
29776;SDS011;16677;52.224;7.484;2023-02-28T08:39:51;5.15;;;3.88;;
29776;SDS011;16677;52.224;7.484;2023-02-28T08:42:21;5.25;;;3.60;;
29776;SDS011;16677;52.224;7.484;2023-02-28T08:44:49;4.03;;;3.57;;
29776;SDS011;16677;52.224;7.484;2023-02-28T08:49:43;4.38;;;3.38;;
29776;SDS011;16677;52.224;7.484;2023-02-28T15:52:21;4.47;;;2.90;;
29776;SDS011;16677;52.224;7.484;2023-02-28T15:55:18;3.40;;;3.10;;
29776;SDS011;16677;52.224;7.484;2023-02-28T15:57:48;3.47;;;2.90;;
29776;SDS011;16677;52.224;7.484;2023-02-28T16:00:25;4.10;;;3.17;;
29776;SDS011;16677;52.224;7.484;2023-02-28T16:02:55;3.43;;;3.13;;
29776;SDS011;16677;52.224;7.484;2023-02-28T16:05:23;4.00;;;3.10;;
29776;SDS011;16677;52.224;7.484;2023-02-28T16:07:59;3.77;;;3.37;;
29776;SDS011;16677;52.224;7.484;2023-02-28T16:10:38;3.93;;;3.30;;
29776;SDS011;16677;52.224;7.484;2023-02-28T16:13:05;2.90;;;2.60;;
29776;SDS011;16677;52.224;7.484;2023-02-28T16:15:35;3.67;;;3.37;;
29776;SDS011;16677;52.224;7.484;2023-02-28T16:18:12;5.93;;;5.13;;
29776;SDS011;16677;52.224;7.484;2023-02-28T16:20:40;3.20;;;2.90;;
29776;SDS011;16677;52.224;7.484;2023-02-28T16:23:07;3.67;;;3.23;;
29776;SDS011;16677;52.224;7.484;2023-02-28T16:25:36;3.90;;;3.50;;
29776;SDS011;16677;52.224;7.484;2023-02-28T16:28:15;3.60;;;3.30;;
29776;SDS011;16677;52.224;7.484;2023-02-28T16:30:51;4.83;;;3.73;;
29776;SDS011;16677;52.224;7.484;2023-02-28T16:33:19;4.20;;;3.67;;
29776;SDS011;16677;52.224;7.484;2023-02-28T16:35:46;3.57;;;3.23;;
29776;SDS011;16677;52.224;7.484;2023-02-28T16:38:13;3.67;;;3.30;;
29776;SDS011;16677;52.224;7.484;2023-02-28T16:40:41;7.77;;;4.00;;
29776;SDS011;16677;52.224;7.484;2023-02-28T16:43:10;3.43;;;3.13;;
29776;SDS011;16677;52.224;7.484;2023-02-28T18:07:34;9.10;;;7.18;;
29776;SDS011;16677;52.224;7.484;2023-02-28T18:10:05;7.60;;;6.73;;
29776;SDS011;16677;52.224;7.484;2023-02-28T18:12:46;7.63;;;5.90;;
29776;SDS011;16677;52.224;7.484;2023-02-28T18:15:17;8.03;;;6.00;;
29776;SDS011;16677;52.224;7.484;2023-02-28T18:17:48;7.47;;;6.63;;
29776;SDS011;16677;52.224;7.484;2023-02-28T18:20:16;8.97;;;7.30;;
29776;SDS011;16677;52.224;7.484;2023-02-28T18:22:44;8.97;;;6.37;;
29776;SDS011;16677;52.224;7.484;2023-02-28T18:25:11;9.30;;;6.40;;
29776;SDS011;16677;52.224;7.484;2023-02-28T18:27:42;7.50;;;6.20;;
29776;SDS011;16677;52.224;7.484;2023-02-28T18:30:20;7.83;;;6.43;;
29776;SDS011;16677;52.224;7.484;2023-02-28T18:32:47;7.57;;;6.53;;
29776;SDS011;16677;52.224;7.484;2023-02-28T18:35:14;9.60;;;7.23;;
29776;SDS011;16677;52.224;7.484;2023-02-28T18:37:43;10.73;;;7.57;;
29776;SDS011;16677;52.224;7.484;2023-02-28T18:40:10;11.73;;;8.60;;
29776;SDS011;16677;52.224;7.484;2023-02-28T18:42:40;8.43;;;7.03;;
29776;SDS011;16677;52.224;7.484;2023-02-28T18:45:07;11.23;;;7.63;;
29776;SDS011;16677;52.224;7.484;2023-02-28T18:47:35;9.70;;;7.73;;
29776;SDS011;16677;52.224;7.484;2023-02-28T18:50:02;9.43;;;7.70;;
29776;SDS011;16677;52.224;7.484;2023-02-28T18:52:31;13.63;;;10.47;;
29776;SDS011;16677;52.224;7.484;2023-02-28T18:54:58;14.90;;;10.87;;
29776;SDS011;16677;52.224;7.484;2023-02-28T18:57:26;14.73;;;12.47;;
29776;SDS011;16677;52.224;7.484;2023-02-28T18:59:54;16.63;;;12.03;;
29776;SDS011;16677;52.224;7.484;2023-02-28T19:02:21;16.47;;;13.40;;
29776;SDS011;16677;52.224;7.484;2023-02-28T19:04:48;19.97;;;14.97;;
29776;SDS011;16677;52.224;7.484;2023-02-28T19:07:15;18.97;;;15.40;;
29776;SDS011;16677;52.224;7.484;2023-02-28T19:09:43;17.90;;;13.10;;
29776;SDS011;16677;52.224;7.484;2023-02-28T19:12:10;19.03;;;14.40;;
29776;SDS011;16677;52.224;7.484;2023-02-28T19:14:37;19.27;;;14.30;;
29776;SDS011;16677;52.224;7.484;2023-02-28T19:17:04;24.03;;;16.80;;
29776;SDS011;16677;52.224;7.484;2023-02-28T19:19:31;36.67;;;23.50;;
29776;SDS011;16677;52.224;7.484;2023-02-28T19:21:58;33.40;;;22.53;;
29776;SDS011;16677;52.224;7.484;2023-02-28T19:24:25;42.77;;;25.57;;
29776;SDS011;16677;52.224;7.484;2023-02-28T19:26:52;39.57;;;24.90;;
29776;SDS011;16677;52.224;7.484;2023-02-28T19:29:20;50.20;;;29.70;;
29776;SDS011;16677;52.224;7.484;2023-02-28T19:31:47;37.47;;;25.97;;
